createdAt,value
2023-04-20T00:00:51.318Z,0.00
2023-04-20T00:01:51.352Z,0.00
2023-04-20T00:02:51.492Z,0.00
2023-04-20T00:03:51.534Z,0.00
2023-04-20T00:04:51.398Z,0.00
2023-04-20T00:05:51.377Z,0.00
2023-04-20T00:06:51.385Z,0.00
2023-04-20T00:07:51.395Z,0.00
2023-04-20T00:08:51.408Z,0.00
2023-04-20T00:09:51.428Z,0.00
2023-04-20T00:10:51.434Z,0.00
2023-04-20T00:11:51.451Z,0.00
2023-04-20T00:12:51.459Z,0.00
2023-04-20T00:13:51.467Z,0.00
2023-04-20T00:14:51.485Z,0.00
2023-04-20T00:15:51.495Z,0.00
2023-04-20T00:16:51.534Z,0.00
2023-04-20T00:17:51.585Z,0.00
2023-04-20T00:18:51.535Z,0.00
2023-04-20T00:19:51.534Z,0.00
2023-04-20T00:20:51.564Z,0.00
2023-04-20T00:21:51.560Z,0.00
2023-04-20T00:22:51.569Z,0.00
2023-04-20T00:23:51.581Z,0.00
2023-04-20T00:24:51.594Z,0.00
2023-04-20T00:25:51.609Z,0.00
2023-04-20T00:26:51.619Z,0.00
2023-04-20T00:27:51.630Z,0.00
2023-04-20T00:28:51.645Z,0.00
2023-04-20T00:29:51.651Z,0.00
2023-04-20T00:30:51.700Z,0.00
2023-04-20T00:31:51.674Z,0.00
2023-04-20T00:32:51.712Z,0.00
2023-04-20T00:33:51.701Z,0.00
2023-04-20T00:34:51.708Z,0.00
2023-04-20T00:35:51.715Z,0.00
2023-04-20T00:36:51.751Z,0.00
2023-04-20T00:37:51.740Z,0.00
2023-04-20T00:38:51.762Z,0.00
2023-04-20T00:39:51.769Z,0.00
2023-04-20T00:40:51.777Z,0.00
2023-04-20T00:41:51.790Z,0.00
2023-04-20T00:42:51.827Z,0.00
2023-04-20T00:43:51.815Z,0.00
2023-04-20T00:44:51.822Z,0.00
2023-04-20T00:45:51.860Z,0.00
2023-04-20T00:46:51.845Z,0.00
2023-04-20T00:47:51.908Z,0.00
2023-04-20T00:48:51.899Z,0.00
2023-04-20T00:49:51.881Z,0.00
2023-04-20T00:50:51.887Z,0.00
2023-04-20T00:51:51.903Z,0.00
2023-04-20T00:52:51.923Z,0.00
2023-04-20T00:53:51.929Z,0.00
2023-04-20T00:54:51.939Z,0.00
2023-04-20T00:55:51.949Z,0.00
2023-04-20T00:56:51.966Z,0.00
2023-04-20T00:57:51.974Z,0.00
2023-04-20T00:58:51.992Z,0.00
2023-04-20T00:59:51.997Z,0.00
2023-04-20T01:00:52.004Z,0.00
2023-04-20T01:01:52.097Z,0.00
2023-04-20T01:02:52.089Z,0.00
2023-04-20T01:03:52.165Z,0.00
2023-04-20T01:04:52.061Z,0.00
2023-04-20T01:05:52.069Z,0.00
2023-04-20T01:06:52.078Z,0.00
2023-04-20T01:07:52.092Z,0.00
2023-04-20T01:08:52.127Z,0.00
2023-04-20T01:09:52.113Z,0.00
2023-04-20T01:10:52.126Z,0.00
2023-04-20T01:11:52.137Z,0.00
2023-04-20T01:12:52.148Z,0.00
2023-04-20T01:13:52.159Z,0.00
2023-04-20T01:14:52.169Z,0.00
2023-04-20T01:15:52.217Z,0.00
2023-04-20T01:16:52.203Z,0.00
2023-04-20T01:17:52.312Z,0.00
2023-04-20T01:18:52.216Z,0.00
2023-04-20T01:19:52.227Z,0.00
2023-04-20T01:20:52.239Z,0.00
2023-04-20T01:21:52.249Z,0.00
2023-04-20T01:22:52.263Z,0.00
2023-04-20T01:23:52.297Z,0.00
2023-04-20T01:24:52.286Z,0.00
2023-04-20T01:25:52.297Z,0.00
2023-04-20T01:26:52.308Z,0.00
2023-04-20T01:27:52.323Z,0.00
2023-04-20T01:28:52.332Z,0.00
2023-04-20T01:29:52.349Z,0.00
2023-04-20T01:30:52.352Z,0.00
2023-04-20T01:31:52.474Z,0.00
2023-04-20T01:32:52.464Z,0.00
2023-04-20T01:33:52.405Z,0.00
2023-04-20T01:34:52.399Z,0.00
2023-04-20T01:35:52.408Z,0.00
2023-04-20T01:36:52.420Z,0.00
2023-04-20T01:37:52.432Z,0.00
2023-04-20T01:38:52.462Z,0.00
2023-04-20T01:39:52.497Z,0.00
2023-04-20T01:40:52.476Z,0.00
2023-04-20T01:41:52.474Z,0.00
2023-04-20T01:42:52.509Z,0.00
2023-04-20T01:43:52.517Z,0.00
2023-04-20T01:44:52.509Z,0.00
2023-04-20T01:45:52.527Z,0.00
2023-04-20T01:46:52.587Z,0.00
2023-04-20T01:47:52.593Z,0.00
2023-04-20T01:48:52.556Z,0.00
2023-04-20T01:49:52.568Z,0.00
2023-04-20T01:50:52.600Z,0.00
2023-04-20T01:51:52.589Z,0.00
2023-04-20T01:52:52.600Z,0.00
2023-04-20T01:53:52.618Z,0.00
2023-04-20T01:54:52.632Z,0.00
2023-04-20T01:55:52.653Z,0.00
2023-04-20T01:56:52.660Z,0.00
2023-04-20T01:57:52.670Z,0.00
2023-04-20T01:58:52.667Z,0.00
2023-04-20T01:59:52.675Z,0.00
2023-04-20T02:00:52.783Z,0.00
2023-04-20T02:01:52.738Z,0.00
2023-04-20T02:02:52.883Z,0.00
2023-04-20T02:03:53.005Z,0.00
2023-04-20T02:04:52.740Z,0.00
2023-04-20T02:05:52.744Z,0.00
2023-04-20T02:06:52.754Z,0.00
2023-04-20T02:07:52.770Z,0.00
2023-04-20T02:08:52.782Z,0.00
2023-04-20T02:09:52.789Z,0.00
2023-04-20T02:10:52.798Z,0.00
2023-04-20T02:11:52.806Z,0.00
2023-04-20T02:12:52.818Z,0.00
2023-04-20T02:13:52.829Z,0.00
2023-04-20T02:14:52.836Z,0.00
2023-04-20T02:15:52.857Z,0.00
2023-04-20T02:16:52.885Z,0.00
2023-04-20T02:17:53.013Z,0.00
2023-04-20T02:18:52.889Z,0.00
2023-04-20T02:19:52.901Z,0.00
2023-04-20T02:20:52.916Z,0.00
2023-04-20T02:21:52.919Z,0.00
2023-04-20T02:22:52.929Z,0.00
2023-04-20T02:23:52.940Z,0.00
2023-04-20T02:24:52.963Z,0.00
2023-04-20T02:25:52.973Z,0.00
2023-04-20T02:26:52.972Z,0.00
2023-04-20T02:27:52.979Z,0.00
2023-04-20T02:28:52.993Z,0.00
2023-04-20T02:29:53.006Z,0.00
2023-04-20T02:30:53.051Z,0.00
2023-04-20T02:31:53.025Z,0.00
2023-04-20T02:32:53.118Z,0.00
2023-04-20T02:33:53.048Z,0.00
2023-04-20T02:34:53.063Z,0.00
2023-04-20T02:35:53.073Z,0.00
2023-04-20T02:36:53.086Z,0.00
2023-04-20T02:37:53.097Z,0.00
2023-04-20T02:38:53.106Z,0.00
2023-04-20T02:39:53.127Z,0.00
2023-04-20T02:40:53.128Z,0.00
2023-04-20T02:41:53.137Z,0.00
2023-04-20T02:42:53.148Z,0.00
2023-04-20T02:43:53.158Z,0.00
2023-04-20T02:44:53.175Z,0.00
2023-04-20T02:45:53.184Z,0.00
2023-04-20T02:46:53.265Z,0.00
2023-04-20T02:47:53.244Z,0.00
2023-04-20T02:48:53.230Z,0.00
2023-04-20T02:49:53.236Z,0.00
2023-04-20T02:50:53.243Z,0.00
2023-04-20T02:51:53.256Z,0.00
2023-04-20T02:52:53.270Z,0.00
2023-04-20T02:53:53.280Z,0.00
2023-04-20T02:54:53.298Z,0.00
2023-04-20T02:55:53.311Z,0.00
2023-04-20T02:56:53.750Z,0.00
2023-04-20T02:57:53.325Z,0.00
2023-04-20T02:58:53.335Z,0.00
2023-04-20T02:59:53.350Z,0.00
2023-04-20T03:00:53.361Z,0.00
2023-04-20T03:01:53.408Z,0.00
2023-04-20T03:02:53.489Z,0.00
2023-04-20T03:03:53.604Z,0.00
2023-04-20T03:04:53.557Z,0.00
2023-04-20T03:05:53.421Z,0.00
2023-04-20T03:06:53.430Z,0.00
2023-04-20T03:07:53.455Z,0.00
2023-04-20T03:08:53.454Z,0.00
2023-04-20T03:09:53.466Z,0.00
2023-04-20T03:10:53.479Z,0.00
2023-04-20T03:11:53.492Z,0.00
2023-04-20T03:12:53.504Z,0.00
2023-04-20T03:13:53.511Z,0.00
2023-04-20T03:14:53.523Z,0.00
2023-04-20T03:15:53.544Z,0.00
2023-04-20T03:16:53.569Z,0.00
2023-04-20T03:17:53.590Z,0.00
2023-04-20T03:18:53.582Z,0.00
2023-04-20T03:19:53.585Z,0.00
2023-04-20T03:20:53.608Z,0.00
2023-04-20T03:21:53.613Z,0.00
2023-04-20T03:22:53.616Z,0.00
2023-04-20T03:23:53.624Z,0.00
2023-04-20T03:24:53.783Z,0.00
2023-04-20T03:25:53.657Z,0.00
2023-04-20T03:26:53.661Z,0.00
2023-04-20T03:27:53.676Z,0.00
2023-04-20T03:28:53.689Z,0.00
2023-04-20T03:29:53.694Z,0.00
2023-04-20T03:30:53.706Z,0.00
2023-04-20T03:31:53.805Z,0.00
2023-04-20T03:32:53.799Z,0.00
2023-04-20T03:33:53.744Z,0.00
2023-04-20T03:34:53.753Z,0.00
2023-04-20T03:35:53.766Z,0.00
2023-04-20T03:36:53.777Z,0.00
2023-04-20T03:37:53.788Z,0.00
2023-04-20T03:38:53.796Z,0.00
2023-04-20T03:39:53.818Z,0.00
2023-04-20T03:40:53.828Z,0.00
2023-04-20T03:41:53.836Z,0.00
2023-04-20T03:42:53.850Z,0.00
2023-04-20T03:43:53.865Z,0.00
2023-04-20T03:44:53.867Z,0.00
2023-04-20T03:45:53.947Z,0.00
2023-04-20T03:46:53.893Z,0.00
2023-04-20T03:47:53.931Z,0.00
2023-04-20T03:48:53.914Z,0.00
2023-04-20T03:49:53.936Z,0.00
2023-04-20T03:50:53.941Z,0.00
2023-04-20T03:51:53.956Z,0.00
2023-04-20T03:52:53.965Z,0.00
2023-04-20T03:53:53.989Z,0.00
2023-04-20T03:54:54.015Z,0.00
2023-04-20T03:55:54.003Z,0.00
2023-04-20T03:56:54.026Z,5.63
2023-04-20T03:57:54.044Z,5.63
2023-04-20T03:58:54.035Z,5.63
2023-04-20T03:59:54.053Z,5.63
2023-04-20T04:00:54.061Z,5.63
2023-04-20T04:01:54.096Z,5.63
2023-04-20T04:02:54.268Z,5.63
2023-04-20T04:03:54.317Z,5.63
2023-04-20T04:04:54.212Z,11.25
2023-04-20T04:05:54.125Z,11.25
2023-04-20T04:06:54.124Z,11.25
2023-04-20T04:07:54.142Z,11.25
2023-04-20T04:08:54.164Z,11.25
2023-04-20T04:09:54.162Z,11.25
2023-04-20T04:10:54.178Z,11.25
2023-04-20T04:11:54.191Z,11.25
2023-04-20T04:12:54.199Z,16.88
2023-04-20T04:13:54.211Z,16.88
2023-04-20T04:14:54.223Z,22.50
2023-04-20T04:15:54.233Z,22.50
2023-04-20T04:16:54.285Z,22.50
2023-04-20T04:17:54.307Z,22.50
2023-04-20T04:18:54.275Z,28.13
2023-04-20T04:19:54.283Z,22.50
2023-04-20T04:20:54.297Z,22.50
2023-04-20T04:21:54.302Z,22.50
2023-04-20T04:22:54.323Z,22.50
2023-04-20T04:23:54.331Z,22.50
2023-04-20T04:24:54.344Z,28.13
2023-04-20T04:25:54.364Z,28.13
2023-04-20T04:26:54.366Z,33.75
2023-04-20T04:27:54.377Z,33.75
2023-04-20T04:28:54.387Z,39.38
2023-04-20T04:29:54.400Z,39.38
2023-04-20T04:30:54.424Z,39.38
2023-04-20T04:31:54.618Z,39.38
2023-04-20T04:32:54.467Z,39.38
2023-04-20T04:33:54.452Z,45.00
2023-04-20T04:34:54.465Z,50.63
2023-04-20T04:35:54.485Z,56.25
2023-04-20T04:36:54.486Z,56.25
2023-04-20T04:37:54.500Z,56.25
2023-04-20T04:38:54.509Z,56.25
2023-04-20T04:39:54.528Z,50.63
2023-04-20T04:40:54.534Z,50.63
2023-04-20T04:41:54.555Z,50.63
2023-04-20T04:42:54.558Z,50.63
2023-04-20T04:43:54.579Z,56.25
2023-04-20T04:44:54.581Z,67.50
2023-04-20T04:45:54.591Z,67.50
2023-04-20T04:46:54.606Z,73.13
2023-04-20T04:47:54.633Z,73.13
2023-04-20T04:48:54.634Z,84.38
2023-04-20T04:49:54.640Z,101.25
2023-04-20T04:50:54.656Z,112.50
2023-04-20T04:51:54.667Z,95.63
2023-04-20T04:52:54.681Z,78.75
2023-04-20T04:53:54.689Z,67.50
2023-04-20T04:54:54.704Z,67.50
2023-04-20T04:55:54.715Z,61.88
2023-04-20T04:56:54.734Z,73.13
2023-04-20T04:57:54.741Z,67.50
2023-04-20T04:58:54.750Z,56.25
2023-04-20T04:59:54.769Z,50.63
2023-04-20T05:00:54.782Z,50.63
2023-04-20T05:01:54.842Z,56.25
2023-04-20T05:02:54.931Z,61.88
2023-04-20T05:03:55.110Z,84.38
2023-04-20T05:04:54.921Z,95.63
2023-04-20T05:05:54.843Z,95.63
2023-04-20T05:06:54.855Z,106.88
2023-04-20T05:07:54.865Z,112.50
2023-04-20T05:08:54.874Z,101.25
2023-04-20T05:09:54.882Z,95.63
2023-04-20T05:10:54.894Z,95.63
2023-04-20T05:11:54.907Z,73.13
2023-04-20T05:12:54.917Z,73.13
2023-04-20T05:13:54.929Z,73.13
2023-04-20T05:14:54.945Z,78.75
2023-04-20T05:15:54.994Z,67.50
2023-04-20T05:16:54.967Z,73.13
2023-04-20T05:17:55.004Z,78.75
2023-04-20T05:18:54.997Z,73.13
2023-04-20T05:19:55.006Z,61.88
2023-04-20T05:20:55.027Z,61.88
2023-04-20T05:21:55.028Z,61.88
2023-04-20T05:22:55.040Z,67.50
2023-04-20T05:23:55.054Z,78.75
2023-04-20T05:24:55.065Z,112.50
2023-04-20T05:25:55.081Z,123.75
2023-04-20T05:26:55.092Z,135.00
2023-04-20T05:27:55.103Z,123.75
2023-04-20T05:28:55.114Z,95.63
2023-04-20T05:29:55.133Z,84.38
2023-04-20T05:30:55.158Z,78.75
2023-04-20T05:31:55.211Z,84.38
2023-04-20T05:32:55.223Z,135.00
2023-04-20T05:33:55.180Z,174.38
2023-04-20T05:34:55.189Z,185.63
2023-04-20T05:35:55.201Z,180.00
2023-04-20T05:36:55.215Z,174.38
2023-04-20T05:37:55.226Z,174.38
2023-04-20T05:38:55.240Z,174.38
2023-04-20T05:39:55.254Z,174.38
2023-04-20T05:40:55.275Z,185.63
2023-04-20T05:41:55.282Z,185.63
2023-04-20T05:42:55.298Z,174.38
2023-04-20T05:43:55.301Z,191.25
2023-04-20T05:44:55.323Z,196.88
2023-04-20T05:45:55.384Z,180.00
2023-04-20T05:46:55.341Z,180.00
2023-04-20T05:47:55.400Z,202.50
2023-04-20T05:48:55.377Z,213.75
2023-04-20T05:49:55.383Z,202.50
2023-04-20T05:50:55.398Z,185.63
2023-04-20T05:51:55.403Z,202.50
2023-04-20T05:52:55.431Z,230.63
2023-04-20T05:53:55.455Z,230.63
2023-04-20T05:54:55.455Z,219.38
2023-04-20T05:55:55.467Z,208.13
2023-04-20T05:56:55.470Z,191.25
2023-04-20T05:57:55.494Z,191.25
2023-04-20T05:58:55.500Z,202.50
2023-04-20T05:59:55.510Z,208.13
2023-04-20T06:00:55.526Z,208.13
2023-04-20T06:01:55.558Z,202.50
2023-04-20T06:02:55.724Z,208.13
2023-04-20T06:03:55.745Z,253.13
2023-04-20T06:04:55.615Z,326.25
2023-04-20T06:05:55.594Z,343.13
2023-04-20T06:06:55.602Z,331.88
2023-04-20T06:07:55.617Z,309.38
2023-04-20T06:08:55.632Z,264.38
2023-04-20T06:09:55.645Z,236.25
2023-04-20T06:10:55.663Z,219.38
2023-04-20T06:11:55.668Z,219.38
2023-04-20T06:12:55.683Z,230.63
2023-04-20T06:13:55.698Z,230.63
2023-04-20T06:14:55.711Z,241.88
2023-04-20T06:15:55.767Z,253.13
2023-04-20T06:16:55.736Z,264.38
2023-04-20T06:17:55.780Z,270.00
2023-04-20T06:18:55.763Z,258.75
2023-04-20T06:19:55.776Z,241.88
2023-04-20T06:20:55.789Z,258.75
2023-04-20T06:21:55.815Z,253.13
2023-04-20T06:22:55.824Z,247.50
2023-04-20T06:23:55.835Z,241.88
2023-04-20T06:24:55.842Z,219.38
2023-04-20T06:25:55.862Z,196.88
2023-04-20T06:26:55.869Z,208.13
2023-04-20T06:27:55.890Z,213.75
2023-04-20T06:28:55.901Z,208.13
2023-04-20T06:29:55.908Z,202.50
2023-04-20T06:30:55.949Z,213.75
2023-04-20T06:31:55.938Z,213.75
2023-04-20T06:32:55.970Z,208.13
2023-04-20T06:33:55.976Z,191.25
2023-04-20T06:34:55.979Z,208.13
2023-04-20T06:35:55.989Z,230.63
2023-04-20T06:36:56.002Z,241.88
2023-04-20T06:37:56.018Z,241.88
2023-04-20T06:38:56.034Z,253.13
2023-04-20T06:39:56.044Z,264.38
2023-04-20T06:40:56.058Z,258.75
2023-04-20T06:41:56.070Z,253.13
2023-04-20T06:42:56.089Z,264.38
2023-04-20T06:43:56.100Z,264.38
2023-04-20T06:44:56.112Z,298.13
2023-04-20T06:45:56.129Z,315.00
2023-04-20T06:46:56.201Z,309.38
2023-04-20T06:47:56.196Z,303.75
2023-04-20T06:48:56.177Z,326.25
2023-04-20T06:49:56.179Z,354.38
2023-04-20T06:50:56.209Z,399.38
2023-04-20T06:51:56.204Z,450.00
2023-04-20T06:52:56.216Z,483.75
2023-04-20T06:53:56.236Z,461.25
2023-04-20T06:54:56.245Z,405.00
2023-04-20T06:55:56.261Z,371.25
2023-04-20T06:56:56.272Z,365.63
2023-04-20T06:57:56.297Z,382.50
2023-04-20T06:58:56.305Z,371.25
2023-04-20T06:59:56.313Z,354.38
2023-04-20T07:00:56.328Z,371.25
2023-04-20T07:01:56.376Z,365.63
2023-04-20T07:02:56.516Z,382.50
2023-04-20T07:03:56.630Z,354.38
2023-04-20T07:04:56.481Z,326.25
2023-04-20T07:05:56.403Z,343.13
2023-04-20T07:06:56.412Z,371.25
2023-04-20T07:07:56.428Z,483.75
2023-04-20T07:08:56.442Z,585.00
2023-04-20T07:09:56.461Z,635.63
2023-04-20T07:10:56.469Z,568.13
2023-04-20T07:11:56.516Z,478.13
2023-04-20T07:12:56.513Z,444.38
2023-04-20T07:13:56.524Z,388.13
2023-04-20T07:14:56.542Z,371.25
2023-04-20T07:15:56.578Z,433.13
2023-04-20T07:16:56.598Z,540.00
2023-04-20T07:17:56.654Z,517.50
2023-04-20T07:18:56.601Z,517.50
2023-04-20T07:19:56.607Z,556.88
2023-04-20T07:20:56.618Z,489.38
2023-04-20T07:21:56.630Z,410.63
2023-04-20T07:22:56.646Z,376.88
2023-04-20T07:23:56.667Z,348.75
2023-04-20T07:24:56.693Z,382.50
2023-04-20T07:25:56.727Z,427.50
2023-04-20T07:26:56.717Z,371.25
2023-04-20T07:27:56.721Z,309.38
2023-04-20T07:28:56.746Z,303.75
2023-04-20T07:29:56.759Z,331.88
2023-04-20T07:30:56.801Z,331.88
2023-04-20T07:31:56.813Z,292.50
2023-04-20T07:32:56.840Z,326.25
2023-04-20T07:33:56.948Z,382.50
2023-04-20T07:34:56.831Z,427.50
2023-04-20T07:35:56.845Z,433.13
2023-04-20T07:36:56.862Z,421.88
2023-04-20T07:37:56.877Z,478.13
2023-04-20T07:38:56.901Z,675.00
2023-04-20T07:39:56.909Z,714.38
2023-04-20T07:40:56.935Z,686.25
2023-04-20T07:41:56.946Z,562.50
2023-04-20T07:42:56.957Z,511.88
2023-04-20T07:43:56.977Z,489.38
2023-04-20T07:44:56.984Z,472.50
2023-04-20T07:45:57.064Z,438.75
2023-04-20T07:46:57.013Z,455.63
2023-04-20T07:47:57.067Z,511.88
2023-04-20T07:48:57.053Z,495.00
2023-04-20T07:49:57.062Z,495.00
2023-04-20T07:50:57.079Z,495.00
2023-04-20T07:52:06.035Z,500.63
2023-04-20T07:52:57.108Z,534.38
2023-04-20T07:53:57.138Z,489.38
2023-04-20T07:54:57.144Z,495.00
2023-04-20T07:55:57.161Z,596.25
2023-04-20T07:56:57.186Z,624.38
2023-04-20T07:57:57.190Z,556.88
2023-04-20T07:58:57.208Z,461.25
2023-04-20T07:59:57.218Z,410.63
2023-04-20T08:00:57.245Z,405.00
2023-04-20T08:01:57.292Z,472.50
2023-04-20T08:02:57.353Z,545.63
2023-04-20T08:03:57.553Z,551.25
2023-04-20T08:04:57.462Z,461.25
2023-04-20T08:05:57.445Z,371.25
2023-04-20T08:06:57.327Z,371.25
2023-04-20T08:07:57.350Z,466.88
2023-04-20T08:08:57.361Z,562.50
2023-04-20T08:09:57.384Z,590.63
2023-04-20T08:10:57.399Z,590.63
2023-04-20T08:11:57.615Z,618.75
2023-04-20T08:12:57.437Z,658.13
2023-04-20T08:13:58.360Z,669.38
2023-04-20T08:14:57.458Z,680.63
2023-04-20T08:15:57.514Z,720.00
2023-04-20T08:16:57.505Z,798.75
2023-04-20T08:17:57.510Z,860.63
2023-04-20T08:18:57.521Z,826.88
2023-04-20T08:19:57.536Z,804.38
2023-04-20T08:20:57.552Z,832.50
2023-04-20T08:21:57.567Z,860.63
2023-04-20T08:22:57.584Z,990.00
2023-04-20T08:23:57.600Z,967.50
2023-04-20T08:24:57.622Z,860.63
2023-04-20T08:25:57.636Z,821.25
2023-04-20T08:26:57.649Z,843.75
2023-04-20T08:27:57.668Z,905.63
2023-04-20T08:28:57.683Z,1029.38
2023-04-20T08:29:57.705Z,1012.50
2023-04-20T08:30:57.735Z,945.00
2023-04-20T08:31:57.778Z,900.00
2023-04-20T08:32:57.778Z,798.75
2023-04-20T08:33:57.769Z,804.38
2023-04-20T08:34:57.785Z,748.13
2023-04-20T08:35:57.807Z,680.63
2023-04-20T08:36:57.833Z,624.38
2023-04-20T08:37:57.839Z,613.13
2023-04-20T08:38:57.861Z,562.50
2023-04-20T08:39:57.885Z,483.75
2023-04-20T08:40:57.895Z,348.75
2023-04-20T08:41:57.910Z,303.75
2023-04-20T08:42:57.929Z,326.25
2023-04-20T08:43:57.945Z,315.00
2023-04-20T08:44:57.967Z,286.88
2023-04-20T08:45:57.987Z,281.25
2023-04-20T08:46:58.206Z,298.13
2023-04-20T08:47:58.064Z,292.50
2023-04-20T08:48:58.033Z,247.50
2023-04-20T08:49:58.047Z,281.25
2023-04-20T08:50:58.067Z,343.13
2023-04-20T08:51:58.084Z,388.13
2023-04-20T08:52:58.103Z,382.50
2023-04-20T08:53:58.117Z,315.00
2023-04-20T08:54:58.210Z,270.00
2023-04-20T08:55:58.153Z,270.00
2023-04-20T08:56:58.169Z,275.63
2023-04-20T08:57:58.183Z,270.00
2023-04-20T08:58:58.197Z,253.13
2023-04-20T08:59:58.212Z,247.50
2023-04-20T09:00:58.230Z,258.75
2023-04-20T09:01:58.315Z,270.00
2023-04-20T09:02:58.443Z,275.63
2023-04-20T09:03:58.467Z,270.00
2023-04-20T09:04:58.454Z,270.00
2023-04-20T09:05:58.309Z,275.63
2023-04-20T09:06:58.324Z,275.63
2023-04-20T09:07:58.340Z,264.38
2023-04-20T09:08:58.358Z,275.63
2023-04-20T09:09:58.384Z,286.88
2023-04-20T09:10:58.391Z,298.13
2023-04-20T09:11:58.413Z,303.75
2023-04-20T09:12:58.422Z,315.00
2023-04-20T09:13:58.446Z,348.75
2023-04-20T09:14:58.451Z,371.25
2023-04-20T09:15:58.476Z,337.50
2023-04-20T09:16:58.485Z,309.38
2023-04-20T09:17:58.543Z,298.13
2023-04-20T09:18:58.519Z,270.00
2023-04-20T09:19:58.526Z,241.88
2023-04-20T09:20:58.542Z,236.25
2023-04-20T09:21:58.561Z,236.25
2023-04-20T09:22:58.576Z,241.88
2023-04-20T09:23:58.591Z,258.75
2023-04-20T09:24:58.600Z,275.63
2023-04-20T09:25:58.634Z,292.50
2023-04-20T09:26:58.650Z,292.50
2023-04-20T09:27:58.651Z,298.13
2023-04-20T09:28:58.670Z,315.00
2023-04-20T09:29:58.715Z,326.25
2023-04-20T09:30:58.703Z,326.25
2023-04-20T09:31:58.767Z,326.25
2023-04-20T09:32:58.746Z,348.75
2023-04-20T09:33:58.741Z,382.50
2023-04-20T09:34:58.767Z,416.25
2023-04-20T09:35:58.766Z,438.75
2023-04-20T09:36:58.786Z,466.88
2023-04-20T09:37:58.797Z,478.13
2023-04-20T09:38:58.815Z,495.00
2023-04-20T09:39:58.827Z,534.38
2023-04-20T09:40:58.847Z,585.00
2023-04-20T09:41:58.857Z,607.50
2023-04-20T09:42:58.880Z,624.38
2023-04-20T09:43:58.893Z,641.25
2023-04-20T09:44:58.905Z,624.38
2023-04-20T09:45:58.973Z,646.88
2023-04-20T09:46:58.937Z,686.25
2023-04-20T09:47:58.999Z,703.13
2023-04-20T09:48:58.965Z,663.75
2023-04-20T09:50:04.454Z,624.38
2023-04-20T09:50:59.002Z,641.25
2023-04-20T09:51:59.017Z,703.13
2023-04-20T09:52:59.027Z,720.00
2023-04-20T09:53:59.050Z,675.00
2023-04-20T09:54:59.055Z,736.88
2023-04-20T09:55:59.072Z,894.38
2023-04-20T09:56:59.087Z,1018.13
2023-04-20T09:57:59.107Z,1035.00
2023-04-20T09:58:59.121Z,1012.50
2023-04-20T09:59:59.142Z,1091.25
2023-04-20T10:00:59.164Z,1063.13
2023-04-20T10:01:59.295Z,1051.88
2023-04-20T10:02:59.329Z,1186.88
2023-04-20T10:03:59.558Z,1164.38
2023-04-20T10:04:59.225Z,1012.50
2023-04-20T10:05:59.246Z,956.25
2023-04-20T10:06:59.252Z,1023.75
2023-04-20T10:07:59.266Z,1091.25
2023-04-20T10:08:59.286Z,1068.75
2023-04-20T10:09:59.304Z,1085.63
2023-04-20T10:10:59.322Z,1051.88
2023-04-20T10:11:59.616Z,990.00
2023-04-20T10:12:59.360Z,1029.38
2023-04-20T10:13:59.374Z,1153.13
2023-04-20T10:14:59.394Z,1141.88
2023-04-20T10:15:59.437Z,1125.00
2023-04-20T10:16:59.513Z,1113.75
2023-04-20T10:17:59.529Z,1040.63
2023-04-20T10:18:59.508Z,1130.63
2023-04-20T10:19:59.488Z,1001.25
2023-04-20T10:20:59.501Z,922.50
2023-04-20T10:21:59.521Z,866.25
2023-04-20T10:22:59.544Z,810.00
2023-04-20T10:23:59.558Z,939.38
2023-04-20T10:24:59.616Z,855.00
2023-04-20T10:25:59.602Z,686.25
2023-04-20T10:26:59.644Z,686.25
2023-04-20T10:27:59.654Z,984.38
2023-04-20T10:28:59.656Z,1125.00
2023-04-20T10:29:59.676Z,1068.75
2023-04-20T10:30:59.793Z,1130.63
2023-04-20T10:31:59.705Z,1023.75
2023-04-20T10:32:59.758Z,911.25
2023-04-20T10:33:59.754Z,933.75
2023-04-20T10:34:59.762Z,1018.13
2023-04-20T10:35:59.778Z,1012.50
2023-04-20T10:36:59.801Z,1321.88
2023-04-20T10:37:59.821Z,1721.25
2023-04-20T10:38:59.837Z,1766.25
2023-04-20T10:39:59.878Z,1738.13
2023-04-20T10:40:59.877Z,1130.63
2023-04-20T10:41:59.895Z,843.75
2023-04-20T10:42:59.912Z,866.25
2023-04-20T10:43:59.941Z,1136.25
2023-04-20T10:44:59.956Z,1828.13
2023-04-20T10:46:00.065Z,1833.75
2023-04-20T10:46:59.992Z,1546.88
2023-04-20T10:48:00.064Z,1074.38
2023-04-20T10:49:00.037Z,765.00
2023-04-20T10:50:00.063Z,691.88
2023-04-20T10:51:00.073Z,810.00
2023-04-20T10:52:00.096Z,736.88
2023-04-20T10:53:00.162Z,804.38
2023-04-20T10:54:00.136Z,883.13
2023-04-20T10:55:00.155Z,1023.75
2023-04-20T10:56:00.200Z,1153.13
2023-04-20T10:57:00.198Z,1006.88
2023-04-20T10:58:00.215Z,1136.25
2023-04-20T10:59:02.292Z,995.63
2023-04-20T11:00:00.283Z,1001.25
2023-04-20T11:01:00.269Z,978.75
2023-04-20T11:02:00.389Z,1023.75
2023-04-20T11:03:00.393Z,973.13
2023-04-20T11:04:00.384Z,973.13
2023-04-20T11:05:00.412Z,950.63
2023-04-20T11:06:00.378Z,928.13
2023-04-20T11:07:00.396Z,933.75
2023-04-20T11:08:00.415Z,973.13
2023-04-20T11:09:00.432Z,1080.00
2023-04-20T11:10:00.460Z,1096.88
2023-04-20T11:11:00.472Z,1136.25
2023-04-20T11:12:00.491Z,1158.75
2023-04-20T11:13:00.516Z,1203.75
2023-04-20T11:14:00.534Z,1153.13
2023-04-20T11:15:00.599Z,1141.88
2023-04-20T11:16:00.610Z,1125.00
2023-04-20T11:17:00.624Z,1170.00
2023-04-20T11:18:00.704Z,1316.25
2023-04-20T11:19:00.642Z,1198.13
2023-04-20T11:20:00.651Z,1226.25
2023-04-20T11:21:00.671Z,995.63
2023-04-20T11:22:00.694Z,967.50
2023-04-20T11:23:00.716Z,956.25
2023-04-20T11:24:00.738Z,961.88
2023-04-20T11:25:00.751Z,838.13
2023-04-20T11:26:00.780Z,748.13
2023-04-20T11:27:00.793Z,714.38
2023-04-20T11:28:00.813Z,624.38
2023-04-20T11:29:00.881Z,472.50
2023-04-20T11:30:00.849Z,388.13
2023-04-20T11:31:00.874Z,388.13
2023-04-20T11:32:00.986Z,421.88
2023-04-20T11:33:01.046Z,466.88
2023-04-20T11:34:00.949Z,461.25
2023-04-20T11:35:06.392Z,461.25
2023-04-20T11:36:01.008Z,354.38
2023-04-20T11:37:00.990Z,303.75
2023-04-20T11:38:01.013Z,337.50
2023-04-20T11:39:01.027Z,326.25
2023-04-20T11:40:01.059Z,388.13
2023-04-20T11:41:01.071Z,472.50
2023-04-20T11:42:01.090Z,483.75
2023-04-20T11:43:01.110Z,489.38
2023-04-20T11:44:01.126Z,478.13
2023-04-20T11:45:01.145Z,438.75
2023-04-20T11:46:01.225Z,489.38
2023-04-20T11:47:01.182Z,495.00
2023-04-20T11:48:01.227Z,433.13
2023-04-20T11:49:01.221Z,354.38
2023-04-20T11:50:01.237Z,376.88
2023-04-20T11:51:01.257Z,489.38
2023-04-20T11:52:01.282Z,590.63
2023-04-20T11:53:01.293Z,658.13
2023-04-20T11:54:01.318Z,748.13
2023-04-20T11:55:01.333Z,821.25
2023-04-20T11:56:01.358Z,669.38
2023-04-20T11:57:01.383Z,708.75
2023-04-20T11:58:01.383Z,714.38
2023-04-20T11:59:01.411Z,781.88
2023-04-20T12:00:01.434Z,888.75
2023-04-20T12:01:01.455Z,967.50
2023-04-20T12:02:01.567Z,1350.00
2023-04-20T12:03:01.574Z,945.00
2023-04-20T12:04:01.864Z,1074.38
2023-04-20T12:05:01.601Z,1766.25
2023-04-20T12:06:01.549Z,984.38
2023-04-20T12:07:01.569Z,1186.88
2023-04-20T12:08:01.585Z,1147.50
2023-04-20T12:09:01.596Z,855.00
2023-04-20T12:10:01.631Z,770.63
2023-04-20T12:11:01.665Z,641.25
2023-04-20T12:12:01.655Z,624.38
2023-04-20T12:13:01.676Z,624.38
2023-04-20T12:14:01.707Z,720.00
2023-04-20T12:15:01.773Z,765.00
2023-04-20T12:16:01.838Z,939.38
2023-04-20T12:17:01.762Z,4314.38
2023-04-20T12:18:01.897Z,3071.25
2023-04-20T12:19:01.805Z,1642.50
2023-04-20T12:20:01.832Z,1012.50
2023-04-20T12:21:01.834Z,663.75
2023-04-20T12:22:01.858Z,714.38
2023-04-20T12:23:01.875Z,630.00
2023-04-20T12:24:01.900Z,624.38
2023-04-20T12:25:01.923Z,883.13
2023-04-20T12:26:01.945Z,3200.63
2023-04-20T12:27:01.979Z,1873.13
2023-04-20T12:28:01.978Z,618.75
2023-04-20T12:29:02.002Z,641.25
2023-04-20T12:30:02.024Z,900.00
2023-04-20T12:31:02.053Z,1636.88
2023-04-20T12:32:02.200Z,1996.88
2023-04-20T12:33:02.111Z,1608.75
2023-04-20T12:34:02.136Z,2671.88
2023-04-20T12:35:02.131Z,916.88
2023-04-20T12:36:02.159Z,1136.25
2023-04-20T12:37:02.186Z,832.50
2023-04-20T12:38:02.200Z,928.13
2023-04-20T12:39:02.225Z,911.25
2023-04-20T12:40:02.231Z,793.13
2023-04-20T12:41:02.254Z,894.38
2023-04-20T12:42:02.278Z,1282.50
2023-04-20T12:43:02.301Z,736.88
2023-04-20T12:44:05.156Z,1496.25